sensor_id;sensor_type;location;lat;lon;timestamp;pressure;altitude;pressure_sealevel;temperature;humidity
9969;BME280;5025;48.890;9.278;2023-10-31T00:02:20;97230.72;;;12.27;100.00
9969;BME280;5025;48.890;9.278;2023-10-31T00:04:45;97228.00;;;12.27;100.00
9969;BME280;5025;48.890;9.278;2023-10-31T00:07:11;97226.66;;;12.25;100.00
9969;BME280;5025;48.890;9.278;2023-10-31T00:09:36;97225.34;;;12.17;100.00
9969;BME280;5025;48.890;9.278;2023-10-31T00:12:02;97239.41;;;12.14;100.00
9969;BME280;5025;48.890;9.278;2023-10-31T00:14:27;97257.84;;;12.12;100.00
9969;BME280;5025;48.890;9.278;2023-10-31T00:16:52;97251.88;;;12.10;100.00
9969;BME280;5025;48.890;9.278;2023-10-31T00:19:18;97260.00;;;12.05;100.00
9969;BME280;5025;48.890;9.278;2023-10-31T00:21:44;97256.22;;;12.00;100.00
9969;BME280;5025;48.890;9.278;2023-10-31T00:24:09;97271.13;;;11.98;100.00
9969;BME280;5025;48.890;9.278;2023-10-31T00:26:34;97261.66;;;11.90;100.00
9969;BME280;5025;48.890;9.278;2023-10-31T00:29:00;97267.63;;;11.92;100.00
9969;BME280;5025;48.890;9.278;2023-10-31T00:31:25;97274.34;;;11.90;100.00
9969;BME280;5025;48.890;9.278;2023-10-31T00:33:50;97272.47;;;11.90;100.00
9969;BME280;5025;48.890;9.278;2023-10-31T00:36:15;97278.97;;;11.89;100.00
9969;BME280;5025;48.890;9.278;2023-10-31T00:38:41;97289.25;;;11.87;100.00
9969;BME280;5025;48.890;9.278;2023-10-31T00:41:06;97281.69;;;11.84;100.00
9969;BME280;5025;48.890;9.278;2023-10-31T00:43:31;97280.34;;;11.76;100.00
9969;BME280;5025;48.890;9.278;2023-10-31T00:45:57;97278.44;;;11.77;100.00
9969;BME280;5025;48.890;9.278;2023-10-31T00:48:22;97292.25;;;11.70;100.00
9969;BME280;5025;48.890;9.278;2023-10-31T00:50:47;97289.84;;;11.58;100.00
9969;BME280;5025;48.890;9.278;2023-10-31T00:53:13;97290.66;;;11.59;100.00
9969;BME280;5025;48.890;9.278;2023-10-31T00:55:39;97290.66;;;11.54;100.00
9969;BME280;5025;48.890;9.278;2023-10-31T00:58:04;97291.19;;;11.35;100.00
9969;BME280;5025;48.890;9.278;2023-10-31T01:00:30;97293.63;;;11.32;100.00
9969;BME280;5025;48.890;9.278;2023-10-31T01:02:55;97291.22;;;11.25;100.00
9969;BME280;5025;48.890;9.278;2023-10-31T01:05:20;97293.09;;;11.19;100.00
9969;BME280;5025;48.890;9.278;2023-10-31T01:07:46;97301.19;;;11.19;100.00
9969;BME280;5025;48.890;9.278;2023-10-31T01:10:11;97312.53;;;11.21;100.00
9969;BME280;5025;48.890;9.278;2023-10-31T01:12:37;97306.88;;;11.23;99.75
9969;BME280;5025;48.890;9.278;2023-10-31T01:15:02;97313.63;;;11.25;99.55
9969;BME280;5025;48.890;9.278;2023-10-31T01:17:27;97317.16;;;11.16;98.59
9969;BME280;5025;48.890;9.278;2023-10-31T01:19:53;97303.34;;;11.12;97.27
9969;BME280;5025;48.890;9.278;2023-10-31T01:22:18;97311.97;;;11.09;96.41
9969;BME280;5025;48.890;9.278;2023-10-31T01:24:43;97310.91;;;11.05;95.65
9969;BME280;5025;48.890;9.278;2023-10-31T01:27:08;97316.84;;;11.07;95.04
9969;BME280;5025;48.890;9.278;2023-10-31T01:29:34;97318.75;;;11.06;94.06
9969;BME280;5025;48.890;9.278;2023-10-31T01:31:59;97306.59;;;11.04;93.72
9969;BME280;5025;48.890;9.278;2023-10-31T01:34:24;97313.31;;;11.01;93.32
9969;BME280;5025;48.890;9.278;2023-10-31T01:36:50;97322.53;;;11.00;93.05
9969;BME280;5025;48.890;9.278;2023-10-31T01:39:15;97325.75;;;10.97;92.84
9969;BME280;5025;48.890;9.278;2023-10-31T01:41:43;97333.31;;;10.95;92.38
9969;BME280;5025;48.890;9.278;2023-10-31T01:44:12;97335.72;;;10.91;91.81
9969;BME280;5025;48.890;9.278;2023-10-31T01:46:37;97336.28;;;10.88;91.32
9969;BME280;5025;48.890;9.278;2023-10-31T01:49:03;97339.50;;;10.85;91.16
9969;BME280;5025;48.890;9.278;2023-10-31T01:51:28;97337.88;;;10.84;91.03
9969;BME280;5025;48.890;9.278;2023-10-31T01:53:55;97335.69;;;10.81;90.65
9969;BME280;5025;48.890;9.278;2023-10-31T01:56:21;97335.44;;;10.77;91.07
9969;BME280;5025;48.890;9.278;2023-10-31T01:58:48;97350.81;;;10.77;91.07
9969;BME280;5025;48.890;9.278;2023-10-31T02:01:13;97345.97;;;10.74;91.17
9969;BME280;5025;48.890;9.278;2023-10-31T02:03:39;97360.00;;;10.76;90.94
9969;BME280;5025;48.890;9.278;2023-10-31T02:06:04;97363.81;;;10.80;90.99
9969;BME280;5025;48.890;9.278;2023-10-31T02:08:30;97361.91;;;10.81;90.46
9969;BME280;5025;48.890;9.278;2023-10-31T02:10:55;97363.00;;;10.85;90.34
9969;BME280;5025;48.890;9.278;2023-10-31T02:13:21;97358.41;;;10.85;90.00
9969;BME280;5025;48.890;9.278;2023-10-31T02:15:46;97369.72;;;10.82;90.16
9969;BME280;5025;48.890;9.278;2023-10-31T02:18:12;97372.97;;;10.84;90.38
9969;BME280;5025;48.890;9.278;2023-10-31T02:20:38;97378.94;;;10.86;90.59
9969;BME280;5025;48.890;9.278;2023-10-31T02:23:03;97372.44;;;10.87;90.44
9969;BME280;5025;48.890;9.278;2023-10-31T02:25:29;97381.38;;;10.88;90.53
9969;BME280;5025;48.890;9.278;2023-10-31T02:27:54;97377.88;;;10.92;90.28
9969;BME280;5025;48.890;9.278;2023-10-31T02:30:20;97378.41;;;10.94;90.36
9969;BME280;5025;48.890;9.278;2023-10-31T02:32:45;97376.00;;;10.98;90.15
9969;BME280;5025;48.890;9.278;2023-10-31T02:35:11;97378.44;;;11.05;90.26
9969;BME280;5025;48.890;9.278;2023-10-31T02:37:36;97372.78;;;11.06;89.82
9969;BME280;5025;48.890;9.278;2023-10-31T02:40:02;97375.50;;;11.06;89.94
9969;BME280;5025;48.890;9.278;2023-10-31T02:42:28;97383.84;;;11.05;90.13
9969;BME280;5025;48.890;9.278;2023-10-31T02:44:53;97387.34;;;11.00;90.40
9969;BME280;5025;48.890;9.278;2023-10-31T02:47:18;97385.19;;;10.97;90.65
9969;BME280;5025;48.890;9.278;2023-10-31T02:49:44;97389.75;;;10.91;90.62
9969;BME280;5025;48.890;9.278;2023-10-31T02:52:09;97389.19;;;10.84;90.97
9969;BME280;5025;48.890;9.278;2023-10-31T02:54:34;97384.31;;;10.81;91.57
9969;BME280;5025;48.890;9.278;2023-10-31T02:57:00;97391.59;;;10.75;91.58
9969;BME280;5025;48.890;9.278;2023-10-31T02:59:25;97395.09;;;10.71;91.88
9969;BME280;5025;48.890;9.278;2023-10-31T03:01:52;97391.28;;;10.67;92.24
9969;BME280;5025;48.890;9.278;2023-10-31T03:04:17;97402.66;;;10.74;92.10
9969;BME280;5025;48.890;9.278;2023-10-31T03:06:42;97414.53;;;10.73;92.03
9969;BME280;5025;48.890;9.278;2023-10-31T03:09:08;97411.56;;;10.69;92.19
9969;BME280;5025;48.890;9.278;2023-10-31T03:11:33;97418.81;;;10.69;92.02
9969;BME280;5025;48.890;9.278;2023-10-31T03:13:58;97416.38;;;10.67;92.09
9969;BME280;5025;48.890;9.278;2023-10-31T03:16:24;97414.47;;;10.63;92.49
9969;BME280;5025;48.890;9.278;2023-10-31T03:18:50;97418.53;;;10.60;92.80
9969;BME280;5025;48.890;9.278;2023-10-31T03:21:16;97429.28;;;10.55;92.85
9969;BME280;5025;48.890;9.278;2023-10-31T03:23:49;97434.97;;;10.53;93.11
9969;BME280;5025;48.890;9.278;2023-10-31T03:26:18;97429.00;;;10.51;93.51
9969;BME280;5025;48.890;9.278;2023-10-31T03:28:43;97436.03;;;10.52;93.67
9969;BME280;5025;48.890;9.278;2023-10-31T03:31:10;97437.66;;;10.53;93.46
9969;BME280;5025;48.890;9.278;2023-10-31T03:33:35;97436.56;;;10.49;93.57
9969;BME280;5025;48.890;9.278;2023-10-31T03:36:01;97431.69;;;10.51;93.95
9969;BME280;5025;48.890;9.278;2023-10-31T03:38:26;97432.78;;;10.50;93.94
9969;BME280;5025;48.890;9.278;2023-10-31T03:40:51;97429.25;;;10.45;93.99
9969;BME280;5025;48.890;9.278;2023-10-31T03:43:16;97431.59;;;10.36;94.33
9969;BME280;5025;48.890;9.278;2023-10-31T03:45:42;97427.78;;;10.32;95.05
9969;BME280;5025;48.890;9.278;2023-10-31T03:48:07;97429.66;;;10.31;95.40
9969;BME280;5025;48.890;9.278;2023-10-31T03:50:32;97438.59;;;10.32;95.43
9969;BME280;5025;48.890;9.278;2023-10-31T03:52:58;97440.16;;;10.28;95.71
9969;BME280;5025;48.890;9.278;2023-10-31T03:55:23;97452.28;;;10.25;96.25
9969;BME280;5025;48.890;9.278;2023-10-31T03:57:48;97437.44;;;10.22;96.53
9969;BME280;5025;48.890;9.278;2023-10-31T04:00:14;97442.00;;;10.22;96.72
9969;BME280;5025;48.890;9.278;2023-10-31T04:02:40;97450.63;;;10.19;97.10
9969;BME280;5025;48.890;9.278;2023-10-31T04:05:06;97446.09;;;10.30;96.12
9969;BME280;5025;48.890;9.278;2023-10-31T04:07:32;97449.97;;;10.39;95.69
9969;BME280;5025;48.890;9.278;2023-10-31T04:09:57;97452.94;;;10.37;95.42
9969;BME280;5025;48.890;9.278;2023-10-31T04:12:22;97455.44;;;10.44;95.41
9969;BME280;5025;48.890;9.278;2023-10-31T04:14:47;97468.66;;;10.46;94.66
9969;BME280;5025;48.890;9.278;2023-10-31T04:17:13;97466.22;;;10.44;94.75
9969;BME280;5025;48.890;9.278;2023-10-31T04:19:38;97457.03;;;10.45;94.77
9969;BME280;5025;48.890;9.278;2023-10-31T04:22:03;97455.72;;;10.48;94.65
9969;BME280;5025;48.890;9.278;2023-10-31T04:24:29;97457.34;;;10.49;94.28
9969;BME280;5025;48.890;9.278;2023-10-31T04:26:54;97470.59;;;10.55;94.04
9969;BME280;5025;48.890;9.278;2023-10-31T04:29:19;97466.25;;;10.54;93.99
9969;BME280;5025;48.890;9.278;2023-10-31T04:31:45;97475.75;;;10.57;93.93
9969;BME280;5025;48.890;9.278;2023-10-31T04:34:10;97467.38;;;10.58;93.85
9969;BME280;5025;48.890;9.278;2023-10-31T04:36:35;97471.13;;;10.57;93.61
9969;BME280;5025;48.890;9.278;2023-10-31T04:39:01;97468.16;;;10.54;93.53
9969;BME280;5025;48.890;9.278;2023-10-31T04:41:26;97471.66;;;10.54;93.57
9969;BME280;5025;48.890;9.278;2023-10-31T04:43:51;97472.19;;;10.56;93.62
9969;BME280;5025;48.890;9.278;2023-10-31T04:46:17;97472.47;;;10.55;93.50
9969;BME280;5025;48.890;9.278;2023-10-31T04:48:42;97472.75;;;10.53;93.69
9969;BME280;5025;48.890;9.278;2023-10-31T04:51:07;97482.47;;;10.54;93.73
9969;BME280;5025;48.890;9.278;2023-10-31T04:53:32;97479.22;;;10.52;93.74
9969;BME280;5025;48.890;9.278;2023-10-31T04:55:59;97482.47;;;10.54;93.82
9969;BME280;5025;48.890;9.278;2023-10-31T04:58:24;97480.03;;;10.53;93.83
9969;BME280;5025;48.890;9.278;2023-10-31T05:00:50;97491.34;;;10.50;93.95
9969;BME280;5025;48.890;9.278;2023-10-31T05:03:15;97485.94;;;10.50;93.97
9969;BME280;5025;48.890;9.278;2023-10-31T05:05:41;97488.09;;;10.48;93.95
9969;BME280;5025;48.890;9.278;2023-10-31T05:08:06;97492.69;;;10.47;94.15
9969;BME280;5025;48.890;9.278;2023-10-31T05:10:31;97492.44;;;10.49;93.72
9969;BME280;5025;48.890;9.278;2023-10-31T05:12:57;97496.72;;;10.50;93.67
9969;BME280;5025;48.890;9.278;2023-10-31T05:15:22;97505.66;;;10.50;93.53
9969;BME280;5025;48.890;9.278;2023-10-31T05:17:47;97497.56;;;10.50;93.38
9969;BME280;5025;48.890;9.278;2023-10-31T05:20:13;97499.69;;;10.48;93.00
9969;BME280;5025;48.890;9.278;2023-10-31T05:22:40;97504.53;;;10.46;92.98
9969;BME280;5025;48.890;9.278;2023-10-31T05:25:06;97502.59;;;10.36;91.97
9969;BME280;5025;48.890;9.278;2023-10-31T05:27:31;97510.44;;;10.38;91.21
9969;BME280;5025;48.890;9.278;2023-10-31T05:29:56;97508.25;;;10.35;90.69
9969;BME280;5025;48.890;9.278;2023-10-31T05:32:22;97508.00;;;10.36;90.00
9969;BME280;5025;48.890;9.278;2023-10-31T05:34:47;97514.19;;;10.37;89.53
9969;BME280;5025;48.890;9.278;2023-10-31T05:37:12;97517.97;;;10.36;89.46
9969;BME280;5025;48.890;9.278;2023-10-31T05:39:38;97513.66;;;10.35;89.06
9969;BME280;5025;48.890;9.278;2023-10-31T05:42:03;97523.88;;;10.33;89.08
9969;BME280;5025;48.890;9.278;2023-10-31T05:44:29;97518.47;;;10.33;88.67
9969;BME280;5025;48.890;9.278;2023-10-31T05:46:54;97517.44;;;10.39;88.68
9969;BME280;5025;48.890;9.278;2023-10-31T05:49:20;97522.91;;;10.44;88.29
9969;BME280;5025;48.890;9.278;2023-10-31T05:51:52;97513.97;;;10.44;88.03
9969;BME280;5025;48.890;9.278;2023-10-31T05:54:17;97514.53;;;10.46;88.02
9969;BME280;5025;48.890;9.278;2023-10-31T05:56:43;97521.81;;;10.45;88.09
9969;BME280;5025;48.890;9.278;2023-10-31T05:59:10;97524.50;;;10.45;87.74
9969;BME280;5025;48.890;9.278;2023-10-31T06:01:35;97533.94;;;10.43;87.64
9969;BME280;5025;48.890;9.278;2023-10-31T06:04:00;97540.38;;;10.36;87.64
9969;BME280;5025;48.890;9.278;2023-10-31T06:06:25;97550.53;;;10.29;87.58
9969;BME280;5025;48.890;9.278;2023-10-31T06:08:51;97546.47;;;10.27;88.03
9969;BME280;5025;48.890;9.278;2023-10-31T06:11:16;97551.84;;;10.27;87.99
9969;BME280;5025;48.890;9.278;2023-10-31T06:13:41;97547.03;;;10.29;87.77
9969;BME280;5025;48.890;9.278;2023-10-31T06:16:07;97554.28;;;10.28;88.00
9969;BME280;5025;48.890;9.278;2023-10-31T06:18:33;97559.41;;;10.25;88.01
9969;BME280;5025;48.890;9.278;2023-10-31T06:20:59;97554.25;;;10.23;88.35
9969;BME280;5025;48.890;9.278;2023-10-31T06:23:25;97566.38;;;10.20;88.70
9969;BME280;5025;48.890;9.278;2023-10-31T06:25:50;97564.78;;;10.25;88.77
9969;BME280;5025;48.890;9.278;2023-10-31T06:28:15;97566.97;;;10.28;88.65
9969;BME280;5025;48.890;9.278;2023-10-31T06:30:40;97575.63;;;10.30;88.48
9969;BME280;5025;48.890;9.278;2023-10-31T06:33:06;97578.31;;;10.30;88.54
9969;BME280;5025;48.890;9.278;2023-10-31T06:35:32;97574.56;;;10.31;88.85
9969;BME280;5025;48.890;9.278;2023-10-31T06:37:58;97581.28;;;10.28;88.74
9969;BME280;5025;48.890;9.278;2023-10-31T06:40:26;97595.78;;;10.22;89.11
9969;BME280;5025;48.890;9.278;2023-10-31T06:42:52;97594.69;;;10.18;89.54
9969;BME280;5025;48.890;9.278;2023-10-31T06:45:17;97598.75;;;10.20;89.65
9969;BME280;5025;48.890;9.278;2023-10-31T06:47:43;97603.88;;;10.22;89.74
9969;BME280;5025;48.890;9.278;2023-10-31T06:50:08;97612.81;;;10.22;89.88
9969;BME280;5025;48.890;9.278;2023-10-31T06:52:34;97613.38;;;10.25;89.65
9969;BME280;5025;48.890;9.278;2023-10-31T06:54:59;97614.50;;;10.29;89.72
9969;BME280;5025;48.890;9.278;2023-10-31T06:57:25;97625.28;;;10.29;89.77
9969;BME280;5025;48.890;9.278;2023-10-31T06:59:51;97616.06;;;10.25;88.71
9969;BME280;5025;48.890;9.278;2023-10-31T07:02:16;97610.66;;;10.25;88.41
9969;BME280;5025;48.890;9.278;2023-10-31T07:04:42;97618.25;;;10.28;88.37
9969;BME280;5025;48.890;9.278;2023-10-31T07:07:07;97632.28;;;10.30;88.39
9969;BME280;5025;48.890;9.278;2023-10-31T07:09:32;97630.50;;;10.35;88.54
9969;BME280;5025;48.890;9.278;2023-10-31T07:11:58;97632.44;;;10.40;87.99
9969;BME280;5025;48.890;9.278;2023-10-31T07:14:23;97637.28;;;10.38;87.94
9969;BME280;5025;48.890;9.278;2023-10-31T07:16:48;97640.22;;;10.36;87.99
9969;BME280;5025;48.890;9.278;2023-10-31T07:19:14;97634.00;;;10.36;88.05
9969;BME280;5025;48.890;9.278;2023-10-31T07:21:39;97637.53;;;10.36;88.11
9969;BME280;5025;48.890;9.278;2023-10-31T07:24:05;97649.41;;;10.40;88.16
9969;BME280;5025;48.890;9.278;2023-10-31T07:26:32;97647.81;;;10.39;87.85
9969;BME280;5025;48.890;9.278;2023-10-31T07:28:57;97646.97;;;10.39;87.96
9969;BME280;5025;48.890;9.278;2023-10-31T07:31:23;97657.25;;;10.42;87.89
9969;BME280;5025;48.890;9.278;2023-10-31T07:33:48;97653.75;;;10.42;87.73
9969;BME280;5025;48.890;9.278;2023-10-31T07:36:13;97654.81;;;10.40;87.67
9969;BME280;5025;48.890;9.278;2023-10-31T07:38:39;97645.63;;;10.36;88.00
9969;BME280;5025;48.890;9.278;2023-10-31T07:41:04;97659.41;;;10.40;87.82
9969;BME280;5025;48.890;9.278;2023-10-31T07:43:29;97657.25;;;10.42;87.97
9969;BME280;5025;48.890;9.278;2023-10-31T07:45:55;97669.16;;;10.41;88.08
9969;BME280;5025;48.890;9.278;2023-10-31T07:48:20;97669.16;;;10.41;88.05
9969;BME280;5025;48.890;9.278;2023-10-31T07:50:45;97677.25;;;10.41;87.92
9969;BME280;5025;48.890;9.278;2023-10-31T07:53:11;97672.41;;;10.43;88.05
9969;BME280;5025;48.890;9.278;2023-10-31T07:55:36;97672.66;;;10.42;88.12
9969;BME280;5025;48.890;9.278;2023-10-31T07:58:01;97681.00;;;10.40;88.26
9969;BME280;5025;48.890;9.278;2023-10-31T08:00:26;97678.31;;;10.40;88.30
9969;BME280;5025;48.890;9.278;2023-10-31T08:02:52;97685.38;;;10.46;88.44
9969;BME280;5025;48.890;9.278;2023-10-31T08:05:17;97682.69;;;10.46;88.22
9969;BME280;5025;48.890;9.278;2023-10-31T08:07:42;97674.06;;;10.49;88.06
9969;BME280;5025;48.890;9.278;2023-10-31T08:10:08;97675.72;;;10.50;88.00
9969;BME280;5025;48.890;9.278;2023-10-31T08:12:33;97676.25;;;10.52;87.97
9969;BME280;5025;48.890;9.278;2023-10-31T08:14:58;97674.63;;;10.51;87.94
9969;BME280;5025;48.890;9.278;2023-10-31T08:17:24;97678.97;;;10.52;88.10
9969;BME280;5025;48.890;9.278;2023-10-31T08:19:50;97675.75;;;10.55;87.96
9969;BME280;5025;48.890;9.278;2023-10-31T08:22:15;97682.81;;;10.62;88.09
9969;BME280;5025;48.890;9.278;2023-10-31T08:24:41;97689.31;;;10.66;87.74
9969;BME280;5025;48.890;9.278;2023-10-31T08:27:06;97699.63;;;10.69;87.86
9969;BME280;5025;48.890;9.278;2023-10-31T08:29:32;97700.19;;;10.71;87.65
9969;BME280;5025;48.890;9.278;2023-10-31T08:31:57;97704.00;;;10.75;87.44
9969;BME280;5025;48.890;9.278;2023-10-31T08:34:22;97709.47;;;10.80;87.43
9969;BME280;5025;48.890;9.278;2023-10-31T08:36:48;97711.66;;;10.83;87.39
9969;BME280;5025;48.890;9.278;2023-10-31T08:39:13;97719.78;;;10.88;87.28
9969;BME280;5025;48.890;9.278;2023-10-31T08:41:53;97718.75;;;10.94;87.12
9969;BME280;5025;48.890;9.278;2023-10-31T08:44:18;97722.00;;;10.97;87.00
9969;BME280;5025;48.890;9.278;2023-10-31T08:46:44;97727.41;;;10.97;86.81
9969;BME280;5025;48.890;9.278;2023-10-31T08:49:09;97724.75;;;11.02;86.52
9969;BME280;5025;48.890;9.278;2023-10-31T08:51:34;97741.25;;;11.05;86.08
9969;BME280;5025;48.890;9.278;2023-10-31T08:53:59;97731.53;;;11.04;85.75
9969;BME280;5025;48.890;9.278;2023-10-31T08:56:25;97723.72;;;11.08;85.45
9969;BME280;5025;48.890;9.278;2023-10-31T08:58:52;97727.28;;;11.13;85.25
9969;BME280;5025;48.890;9.278;2023-10-31T09:01:17;97720.53;;;11.16;84.96
9969;BME280;5025;48.890;9.278;2023-10-31T09:03:43;97718.38;;;11.18;84.51
9969;BME280;5025;48.890;9.278;2023-10-31T09:06:09;97721.16;;;11.23;84.38
9969;BME280;5025;48.890;9.278;2023-10-31T09:08:35;97727.19;;;11.36;84.17
9969;BME280;5025;48.890;9.278;2023-10-31T09:11:02;97730.19;;;11.44;83.81
9969;BME280;5025;48.890;9.278;2023-10-31T09:13:28;97722.59;;;11.41;83.62
9969;BME280;5025;48.890;9.278;2023-10-31T09:15:53;97731.06;;;11.50;83.71
9969;BME280;5025;48.890;9.278;2023-10-31T09:18:18;97735.41;;;11.56;83.33
9969;BME280;5025;48.890;9.278;2023-10-31T09:20:43;97740.31;;;11.64;82.80
9969;BME280;5025;48.890;9.278;2023-10-31T09:23:09;97745.25;;;11.73;82.34
9969;BME280;5025;48.890;9.278;2023-10-31T09:25:34;97742.56;;;11.73;81.71
9969;BME280;5025;48.890;9.278;2023-10-31T09:28:00;97736.06;;;11.74;81.22
9969;BME280;5025;48.890;9.278;2023-10-31T09:30:25;97734.41;;;11.68;79.62
9969;BME280;5025;48.890;9.278;2023-10-31T09:32:51;97741.41;;;11.63;78.60
9969;BME280;5025;48.890;9.278;2023-10-31T09:35:17;97728.97;;;11.68;78.65
9969;BME280;5025;48.890;9.278;2023-10-31T09:37:42;97730.09;;;11.66;78.51
9969;BME280;5025;48.890;9.278;2023-10-31T09:40:09;97726.59;;;11.71;78.17
9969;BME280;5025;48.890;9.278;2023-10-31T09:42:35;97732.81;;;11.72;78.10
9969;BME280;5025;48.890;9.278;2023-10-31T09:45:00;97723.91;;;11.76;77.73
9969;BME280;5025;48.890;9.278;2023-10-31T09:47:26;97732.56;;;11.78;77.63
9969;BME280;5025;48.890;9.278;2023-10-31T09:49:51;97736.38;;;11.82;77.47
9969;BME280;5025;48.890;9.278;2023-10-31T09:52:17;97730.38;;;11.70;76.17
9969;BME280;5025;48.890;9.278;2023-10-31T09:54:45;97721.66;;;11.63;75.23
9969;BME280;5025;48.890;9.278;2023-10-31T09:57:10;97728.97;;;11.68;75.11
9969;BME280;5025;48.890;9.278;2023-10-31T09:59:36;97724.16;;;11.75;75.15
9969;BME280;5025;48.890;9.278;2023-10-31T10:02:01;97728.19;;;11.72;74.98
9969;BME280;5025;48.890;9.278;2023-10-31T10:04:26;97725.22;;;11.69;74.55
9969;BME280;5025;48.890;9.278;2023-10-31T10:06:59;97715.00;;;11.76;74.77
9969;BME280;5025;48.890;9.278;2023-10-31T10:09:24;97726.06;;;11.74;74.46
9969;BME280;5025;48.890;9.278;2023-10-31T10:11:51;97717.69;;;11.76;74.42
9969;BME280;5025;48.890;9.278;2023-10-31T10:14:17;97716.06;;;11.80;74.42
9969;BME280;5025;48.890;9.278;2023-10-31T10:16:42;97714.72;;;11.77;73.76
9969;BME280;5025;48.890;9.278;2023-10-31T10:19:18;97732.31;;;11.80;73.97
9969;BME280;5025;48.890;9.278;2023-10-31T10:24:12;97728.00;;;11.84;74.08
9969;BME280;5025;48.890;9.278;2023-10-31T10:26:38;97734.50;;;11.88;73.96
9969;BME280;5025;48.890;9.278;2023-10-31T10:29:03;97724.78;;;11.87;74.19
9969;BME280;5025;48.890;9.278;2023-10-31T10:31:29;97736.66;;;11.91;74.37
9969;BME280;5025;48.890;9.278;2023-10-31T10:33:54;97735.09;;;11.95;74.20
9969;BME280;5025;48.890;9.278;2023-10-31T10:36:20;97734.03;;;11.96;74.47
9969;BME280;5025;48.890;9.278;2023-10-31T10:38:46;97740.53;;;11.95;74.29
9969;BME280;5025;48.890;9.278;2023-10-31T10:41:17;97747.59;;;12.01;74.41
9969;BME280;5025;48.890;9.278;2023-10-31T10:43:45;97748.69;;;12.06;74.47
9969;BME280;5025;48.890;9.278;2023-10-31T10:46:12;97744.63;;;12.08;74.62
9969;BME280;5025;48.890;9.278;2023-10-31T10:48:42;97747.91;;;12.10;74.55
9969;BME280;5025;48.890;9.278;2023-10-31T10:51:21;97743.56;;;12.14;74.80
9969;BME280;5025;48.890;9.278;2023-10-31T10:53:54;97746.28;;;12.14;74.65
9969;BME280;5025;48.890;9.278;2023-10-31T10:56:27;97743.31;;;12.16;74.61
9969;BME280;5025;48.890;9.278;2023-10-31T10:59:03;97749.56;;;12.16;75.00
9969;BME280;5025;48.890;9.278;2023-10-31T11:01:30;97750.63;;;12.20;75.03
9969;BME280;5025;48.890;9.278;2023-10-31T11:03:56;97741.19;;;12.23;74.93
9969;BME280;5025;48.890;9.278;2023-10-31T11:06:21;97747.13;;;12.25;75.08
9969;BME280;5025;48.890;9.278;2023-10-31T11:08:48;97750.94;;;12.29;74.80
9969;BME280;5025;48.890;9.278;2023-10-31T11:11:14;97743.38;;;12.31;74.84
9969;BME280;5025;48.890;9.278;2023-10-31T11:13:46;97746.09;;;12.36;75.00
9969;BME280;5025;48.890;9.278;2023-10-31T11:16:17;97752.06;;;12.38;74.74
9969;BME280;5025;48.890;9.278;2023-10-31T11:18:44;97758.53;;;12.32;74.10
9969;BME280;5025;48.890;9.278;2023-10-31T11:21:10;97750.16;;;12.34;73.84
9969;BME280;5025;48.890;9.278;2023-10-31T11:23:35;97758.00;;;12.35;73.45
9969;BME280;5025;48.890;9.278;2023-10-31T11:26:01;97757.19;;;12.35;73.07
9969;BME280;5025;48.890;9.278;2023-10-31T11:28:26;97763.94;;;12.32;72.61
9969;BME280;5025;48.890;9.278;2023-10-31T11:30:52;97752.59;;;12.35;71.98
9969;BME280;5025;48.890;9.278;2023-10-31T11:33:23;97749.09;;;12.35;71.88
9969;BME280;5025;48.890;9.278;2023-10-31T11:36:03;97759.59;;;12.26;71.35
9969;BME280;5025;48.890;9.278;2023-10-31T11:38:37;97755.28;;;12.30;71.76
9969;BME280;5025;48.890;9.278;2023-10-31T11:41:03;97761.25;;;12.32;71.30
9969;BME280;5025;48.890;9.278;2023-10-31T11:43:49;97757.16;;;12.30;72.08
9969;BME280;5025;48.890;9.278;2023-10-31T11:46:19;97765.06;;;12.36;72.04
9969;BME280;5025;48.890;9.278;2023-10-31T11:48:50;97771.03;;;12.44;71.84
9969;BME280;5025;48.890;9.278;2023-10-31T11:51:19;97772.13;;;12.48;71.90
9969;BME280;5025;48.890;9.278;2023-10-31T11:53:45;97767.56;;;12.53;71.92
9969;BME280;5025;48.890;9.278;2023-10-31T11:56:11;97770.53;;;12.52;72.18
9969;BME280;5025;48.890;9.278;2023-10-31T11:58:37;97762.41;;;12.52;72.35
9969;BME280;5025;48.890;9.278;2023-10-31T12:01:07;97777.03;;;12.56;72.53
9969;BME280;5025;48.890;9.278;2023-10-31T12:03:43;97778.13;;;12.55;72.44
9969;BME280;5025;48.890;9.278;2023-10-31T12:06:13;97774.84;;;12.53;72.76
9969;BME280;5025;48.890;9.278;2023-10-31T12:08:43;97778.66;;;12.52;72.71
9969;BME280;5025;48.890;9.278;2023-10-31T12:11:09;97785.41;;;12.49;73.02
9969;BME280;5025;48.890;9.278;2023-10-31T12:13:40;97787.31;;;12.49;73.28
9969;BME280;5025;48.890;9.278;2023-10-31T12:16:07;97788.38;;;12.48;73.64
9969;BME280;5025;48.890;9.278;2023-10-31T12:18:34;97780.25;;;12.48;73.84
9969;BME280;5025;48.890;9.278;2023-10-31T12:21:00;97780.53;;;12.51;73.96
9969;BME280;5025;48.890;9.278;2023-10-31T12:23:25;97781.38;;;12.57;73.90
9969;BME280;5025;48.890;9.278;2023-10-31T12:25:51;97787.34;;;12.64;74.04
9969;BME280;5025;48.890;9.278;2023-10-31T12:28:21;97786.56;;;12.69;74.10
9969;BME280;5025;48.890;9.278;2023-10-31T12:30:48;97789.53;;;12.72;74.02
9969;BME280;5025;48.890;9.278;2023-10-31T12:33:14;97791.97;;;12.74;74.04
9969;BME280;5025;48.890;9.278;2023-10-31T12:35:39;97786.03;;;12.77;74.26
9969;BME280;5025;48.890;9.278;2023-10-31T12:38:05;97793.34;;;12.82;74.11
9969;BME280;5025;48.890;9.278;2023-10-31T12:40:31;97780.06;;;12.85;74.21
9969;BME280;5025;48.890;9.278;2023-10-31T12:42:57;97788.75;;;12.87;74.15
9969;BME280;5025;48.890;9.278;2023-10-31T12:45:24;97793.34;;;12.87;74.19
9969;BME280;5025;48.890;9.278;2023-10-31T12:50:32;97789.28;;;12.89;74.09
9969;BME280;5025;48.890;9.278;2023-10-31T12:52:57;97797.69;;;12.88;73.98
9969;BME280;5025;48.890;9.278;2023-10-31T12:55:28;97791.75;;;12.86;73.74
9969;BME280;5025;48.890;9.278;2023-10-31T12:57:54;97794.44;;;12.86;73.84
9969;BME280;5025;48.890;9.278;2023-10-31T13:00:20;97804.72;;;12.79;73.83
9969;BME280;5025;48.890;9.278;2023-10-31T13:03:05;97794.16;;;12.72;72.69
9969;BME280;5025;48.890;9.278;2023-10-31T13:05:31;97795.75;;;12.68;72.07
9969;BME280;5025;48.890;9.278;2023-10-31T13:07:57;97799.78;;;12.65;71.79
9969;BME280;5025;48.890;9.278;2023-10-31T13:10:27;97795.44;;;12.59;71.23
9969;BME280;5025;48.890;9.278;2023-10-31T13:13:02;97802.75;;;12.59;70.81
9969;BME280;5025;48.890;9.278;2023-10-31T13:15:28;97800.84;;;12.49;70.44
9969;BME280;5025;48.890;9.278;2023-10-31T13:17:53;97810.34;;;12.57;70.57
9969;BME280;5025;48.890;9.278;2023-10-31T13:20:20;97809.50;;;12.46;71.64